»·PEaware :: N104KN KSEZ-KLAS

N104KN :: KSEZ-KLAS

FLIGHT INFORMATION

Flight Status: Arrived
Operator: Privately registered:
United States
More flights under this callsign
Pilot: Jesse M. (22378)
Aircraft: Unknown
(B407)
More flights by this aircraft type
Origin: KSEZ Sedona
United States
Destination: KLAS McCarran Intl
United States
More flights between these airports :: More routes between these airports
Route: +PGS
File this flight plan on PilotEdge
Remarks: 104TH_KNIGHT / YOUTUBE
Altitude:
(Current/Filed)
10,500ft
Speed:
(Current/Filed)
130kts
Departed: 09-Jan-19 09:30 AM
Arrived: 09-Jan-19 10:56 AM
Distance/Time
Traveled:
181nm/1:26
Distance/Time
To Go:
Arrived

Flight Plot

Page will automatically refresh every two minutes.

Flight plan parsing failed; only flown route is shown


Map Options




Map Legend


Flown Route
Filed Route
Departure Airport
Arrival Airport
Navaid (VOR, NDB)
Fix

Horizontal Profiles

Position Reports

Time Latitude Longitude Heading Altitude Ground
Speed
09-Jan-19 09:17 34.847331 -111.792283 136 4756ft 0kts
09-Jan-19 09:18 34.847331 -111.792283 136 4756ft 0kts
09-Jan-19 09:19 34.847331 -111.792283 136 4756ft 0kts
09-Jan-19 09:20 34.847331 -111.792283 136 4756ft 0kts
09-Jan-19 09:21 34.847331 -111.792283 136 4756ft 0kts
09-Jan-19 09:22 34.847331 -111.792283 135 4756ft 0kts
09-Jan-19 09:23 34.847331 -111.792283 136 4756ft 0kts
09-Jan-19 09:24 34.847331 -111.792284 134 4756ft 0kts
09-Jan-19 09:25 34.847313 -111.792311 49 4759ft 0kts
09-Jan-19 09:26 34.847055 -111.791970 235 4761ft 6kts
09-Jan-19 09:27 34.846974 -111.792475 28 4756ft 0kts
09-Jan-19 09:28 34.846478 -111.793097 279 4837ft 24kts
09-Jan-19 09:29 34.862328 -111.814736 310 5256ft 121kts
09-Jan-19 09:30 34.882612 -111.849016 288 5516ft 126kts
09-Jan-19 09:31 34.894441 -111.889734 299 5504ft 131kts
09-Jan-19 09:32 34.911852 -111.928029 297 5394ft 125kts
09-Jan-19 09:33 34.922574 -111.967908 294 5694ft 129kts
09-Jan-19 09:34 34.935557 -112.008038 299 5899ft 126kts
09-Jan-19 09:35 34.959432 -112.038710 322 6315ft 127kts
09-Jan-19 09:36 34.982299 -112.071821 313 6546ft 125kts
09-Jan-19 09:37 34.999883 -112.107614 285 6779ft 125kts
09-Jan-19 09:38 35.008424 -112.150077 285 7043ft 137kts
09-Jan-19 09:39 35.021187 -112.194872 290 7171ft 143kts
09-Jan-19 09:40 35.038886 -112.237381 305 7356ft 140kts
09-Jan-19 09:41 35.063011 -112.276415 299 7371ft 142kts
09-Jan-19 09:42 35.086948 -112.313626 321 7615ft 137kts
09-Jan-19 09:43 35.118993 -112.339366 330 7894ft 141kts
09-Jan-19 09:44 35.152369 -112.363757 318 8203ft 140kts
09-Jan-19 09:45 35.172899 -112.403327 299 8444ft 138kts
09-Jan-19 09:46 35.189798 -112.442592 301 8457ft 128kts
09-Jan-19 09:47 35.207005 -112.480411 293 8468ft 134kts
09-Jan-19 09:48 35.217940 -112.525381 287 8516ft 137kts
09-Jan-19 09:49 35.229278 -112.569770 282 8570ft 135kts
09-Jan-19 09:50 35.241912 -112.613706 292 8616ft 137kts
09-Jan-19 09:51 35.256807 -112.657460 286 8565ft 141kts
09-Jan-19 09:52 35.272475 -112.700566 292 8555ft 141kts
09-Jan-19 09:53 35.288364 -112.744207 293 8550ft 140kts
09-Jan-19 09:54 35.306346 -112.786665 294 8512ft 141kts
09-Jan-19 09:55 35.317301 -112.830815 284 8532ft 130kts
09-Jan-19 09:56 35.329825 -112.872582 291 8506ft 131kts
09-Jan-19 09:57 35.347199 -112.911645 304 8543ft 132kts
09-Jan-19 09:58 35.369526 -112.947456 300 8552ft 131kts
09-Jan-19 09:59 35.384130 -112.988269 290 8561ft 132kts
09-Jan-19 10:00 35.399993 -113.028896 298 8518ft 131kts
09-Jan-19 10:01 35.418978 -113.067290 297 8523ft 129kts
09-Jan-19 10:02 35.434638 -113.107253 290 8596ft 131kts
09-Jan-19 10:03 35.450794 -113.147295 300 8559ft 131kts
09-Jan-19 10:04 35.469325 -113.186152 290 8552ft 132kts
09-Jan-19 10:05 35.488046 -113.225134 306 8489ft 132kts
09-Jan-19 10:06 35.510430 -113.260927 294 8561ft 132kts
09-Jan-19 10:07 35.525189 -113.302215 295 8593ft 130kts
09-Jan-19 10:08 35.543680 -113.340612 303 8699ft 131kts
09-Jan-19 10:09 35.564430 -113.378174 303 8588ft 133kts
09-Jan-19 10:10 35.578099 -113.419983 290 8493ft 132kts
09-Jan-19 10:11 35.595690 -113.460265 303 8508ft 133kts
09-Jan-19 10:12 35.616887 -113.497703 299 8552ft 135kts
09-Jan-19 10:13 35.633324 -113.539022 292 8550ft 131kts
09-Jan-19 10:14 35.644530 -113.581479 286 8484ft 133kts
09-Jan-19 10:15 35.656029 -113.624034 287 8557ft 131kts
09-Jan-19 10:16 35.666915 -113.667101 290 8507ft 131kts
09-Jan-19 10:17 35.679984 -113.709260 292 8417ft 131kts
09-Jan-19 10:18 35.692241 -113.751119 284 8495ft 129kts
09-Jan-19 10:19 35.702409 -113.793648 289 8513ft 132kts
09-Jan-19 10:20 35.715929 -113.835530 294 8354ft 131kts
09-Jan-19 10:21 35.730474 -113.876556 283 8328ft 129kts
09-Jan-19 10:22 35.735409 -113.920905 280 8413ft 130kts
09-Jan-19 10:23 35.745132 -113.964269 291 8426ft 132kts
09-Jan-19 10:24 35.759850 -114.005276 284 8515ft 130kts
09-Jan-19 10:25 35.772984 -114.048024 298 8390ft 137kts
09-Jan-19 10:26 35.794859 -114.088033 297 7741ft 141kts
09-Jan-19 10:27 35.806326 -114.133586 283 7274ft 135kts
09-Jan-19 10:28 35.816945 -114.175767 293 7356ft 128kts
09-Jan-19 10:29 35.835586 -114.212287 313 7637ft 128kts
09-Jan-19 10:30 35.861111 -114.243399 318 7419ft 129kts
09-Jan-19 10:31 35.887948 -114.273935 314 7113ft 133kts
09-Jan-19 10:32 35.913821 -114.305187 317 6844ft 128kts
09-Jan-19 10:33 35.939186 -114.335050 315 6655ft 125kts
09-Jan-19 10:34 35.963637 -114.365725 312 6351ft 126kts
09-Jan-19 10:35 35.982099 -114.402829 294 6010ft 128kts
09-Jan-19 10:36 35.997176 -114.444063 291 5406ft 134kts
09-Jan-19 10:37 36.014226 -114.482968 295 5484ft 129kts
09-Jan-19 10:38 36.029875 -114.523313 297 5478ft 132kts
09-Jan-19 10:39 36.039070 -114.566886 276 5538ft 132kts
09-Jan-19 10:40 36.044002 -114.610396 282 5473ft 126kts
09-Jan-19 10:41 36.049339 -114.653058 279 5497ft 126kts
09-Jan-19 10:42 36.056595 -114.696541 281 5466ft 130kts
09-Jan-19 10:43 36.064628 -114.740422 284 5447ft 131kts
09-Jan-19 10:44 36.074205 -114.784018 279 5537ft 131kts
09-Jan-19 10:45 36.078880 -114.828622 278 5473ft 128kts
09-Jan-19 10:46 36.085666 -114.871333 283 5494ft 126kts
09-Jan-19 10:47 36.092736 -114.914038 280 5476ft 126kts
09-Jan-19 10:48 36.099361 -114.956734 283 5511ft 126kts
09-Jan-19 10:49 36.108973 -114.998958 290 5385ft 131kts
09-Jan-19 10:50 36.123129 -115.041289 295 4528ft 132kts
09-Jan-19 10:51 36.138029 -115.082781 286 4023ft 133kts
09-Jan-19 10:52 36.143206 -115.127958 261 3148ft 129kts
09-Jan-19 10:53 36.119338 -115.145154 206 2699ft 97kts
09-Jan-19 10:54 36.097486 -115.157620 203 2150ft 56kts
09-Jan-19 10:55 36.093950 -115.160284 304 2136ft 8kts
09-Jan-19 10:56 36.094688 -115.161592 16 2136ft 8kts
09-Jan-19 10:57 36.097478 -115.160759 214 2124ft 7kts
09-Jan-19 10:58 36.095977 -115.161883 180 2118ft 0kts
09-Jan-19 10:59 36.095972 -115.161885 178 2115ft 0kts
09-Jan-19 11:00 36.095972 -115.161885 178 2115ft 0kts

Navigation Log

Ident Type
Flight plan parsing failed, navigation log unavailable